St Albans, United Kingdom
Current Conditions -  °F | °C
As of 5:50 PM on Wednesday 28 Jan 2015 (Local Time) from EGGW Reporting Station
Few Clouds Few Clouds  
Wind Chill: 27°   Ceiling: Unl
Heat Index: 37°   Visibility: 6mi
Dew Point: 27°   Wind: 21mph
Humidity: 65%   Direction: 260°W
Pressure: 29.56"   Gusts: NA
Location:  51.77°N, 0.34°W
Report Text: EGGW 281750Z 26018KT 9999 FEW049 03/M03 Q1001
Loading
Personal Weather Stations






























Interactive Weather Map New forecast layout! Learn more

10-Day Weather Forecast

Advertisements
Track Severe Weather on mobile